sensor_id;sensor_type;location;lat;lon;timestamp;pressure;altitude;pressure_sealevel;temperature;humidity
74722;BME280;63470;49.826;6.740;2023-02-28T00:00:18;101280.41;;;-1.76;56.75
74722;BME280;63470;49.826;6.740;2023-02-28T00:02:48;101284.00;;;-1.77;56.75
74722;BME280;63470;49.826;6.740;2023-02-28T00:05:22;101286.92;;;-1.74;56.75
74722;BME280;63470;49.826;6.740;2023-02-28T00:07:51;101286.89;;;-1.73;56.75
74722;BME280;63470;49.826;6.740;2023-02-28T00:10:26;101286.80;;;-1.73;56.73
74722;BME280;63470;49.826;6.740;2023-02-28T00:12:52;101284.94;;;-1.78;56.81
74722;BME280;63470;49.826;6.740;2023-02-28T00:15:25;101287.84;;;-1.82;56.83
74722;BME280;63470;49.826;6.740;2023-02-28T00:17:56;101282.42;;;-1.87;56.90
74722;BME280;63470;49.826;6.740;2023-02-28T00:20:24;101284.52;;;-1.90;56.91
74722;BME280;63470;49.826;6.740;2023-02-28T00:22:57;101289.07;;;-1.93;56.97
74722;BME280;63470;49.826;6.740;2023-02-28T00:25:27;101284.12;;;-1.94;57.01
74722;BME280;63470;49.826;6.740;2023-02-28T00:27:58;101288.33;;;-1.92;56.98
74722;BME280;63470;49.826;6.740;2023-02-28T00:30:23;101286.27;;;-1.88;56.96
74722;BME280;63470;49.826;6.740;2023-02-28T00:32:59;101287.55;;;-1.85;56.89
74722;BME280;63470;49.826;6.740;2023-02-28T00:35:29;101283.97;;;-1.90;56.87
74722;BME280;63470;49.826;6.740;2023-02-28T00:37:59;101287.61;;;-1.95;56.96
74722;BME280;63470;49.826;6.740;2023-02-28T00:40:30;101289.48;;;-1.96;57.00
74722;BME280;63470;49.826;6.740;2023-02-28T00:42:55;101289.38;;;-1.98;57.00
74722;BME280;63470;49.826;6.740;2023-02-28T00:45:30;101288.66;;;-2.01;57.05
74722;BME280;63470;49.826;6.740;2023-02-28T00:47:59;101286.08;;;-1.98;57.04
74722;BME280;63470;49.826;6.740;2023-02-28T00:50:32;101288.09;;;-1.95;56.96
74722;BME280;63470;49.826;6.740;2023-02-28T00:53:00;101286.69;;;-1.98;56.94
74722;BME280;63470;49.826;6.740;2023-02-28T00:55:32;101291.02;;;-2.01;56.92
74722;BME280;63470;49.826;6.740;2023-02-28T00:58:03;101297.00;;;-2.02;56.93
74722;BME280;63470;49.826;6.740;2023-02-28T01:00:28;101297.34;;;-2.07;56.98
74722;BME280;63470;49.826;6.740;2023-02-28T01:02:59;101301.60;;;-2.07;56.98
74722;BME280;63470;49.826;6.740;2023-02-28T01:05:32;101301.75;;;-2.04;56.96
74722;BME280;63470;49.826;6.740;2023-02-28T01:08:00;101300.52;;;-2.03;56.97
74722;BME280;63470;49.826;6.740;2023-02-28T01:10:37;101298.08;;;-1.97;56.90
74722;BME280;63470;49.826;6.740;2023-02-28T01:13:06;101296.62;;;-1.97;56.82
74722;BME280;63470;49.826;6.740;2023-02-28T01:15:38;101297.55;;;-2.01;56.89
74722;BME280;63470;49.826;6.740;2023-02-28T01:18:07;101299.22;;;-2.05;56.92
74722;BME280;63470;49.826;6.740;2023-02-28T01:20:36;101299.70;;;-2.06;56.95
74722;BME280;63470;49.826;6.740;2023-02-28T01:23:04;101301.12;;;-2.06;56.97
74722;BME280;63470;49.826;6.740;2023-02-28T01:25:39;101302.04;;;-2.04;56.96
74722;BME280;63470;49.826;6.740;2023-02-28T01:28:05;101302.04;;;-2.04;56.91
74722;BME280;63470;49.826;6.740;2023-02-28T01:30:40;101297.73;;;-2.07;56.92
74722;BME280;63470;49.826;6.740;2023-02-28T01:33:13;101299.62;;;-2.11;56.95
74722;BME280;63470;49.826;6.740;2023-02-28T01:35:41;101294.98;;;-2.12;57.02
74722;BME280;63470;49.826;6.740;2023-02-28T01:38:09;101290.34;;;-2.11;56.99
74722;BME280;63470;49.826;6.740;2023-02-28T01:40:42;101292.14;;;-2.14;56.98
74722;BME280;63470;49.826;6.740;2023-02-28T01:45:43;101290.52;;;-2.14;56.98
74722;BME280;63470;49.826;6.740;2023-02-28T01:48:13;101287.22;;;-2.13;57.02
74722;BME280;63470;49.826;6.740;2023-02-28T01:50:44;101286.99;;;-2.15;57.03
74722;BME280;63470;49.826;6.740;2023-02-28T01:53:15;101290.45;;;-2.15;57.04
74722;BME280;63470;49.826;6.740;2023-02-28T01:55:46;101288.11;;;-2.18;57.02
74722;BME280;63470;49.826;6.740;2023-02-28T01:58:15;101285.85;;;-2.24;57.11
74722;BME280;63470;49.826;6.740;2023-02-28T02:00:47;101283.51;;;-2.29;57.16
74722;BME280;63470;49.826;6.740;2023-02-28T02:03:14;101280.27;;;-2.30;57.14
74722;BME280;63470;49.826;6.740;2023-02-28T02:05:47;101281.80;;;-2.35;57.10
74722;BME280;63470;49.826;6.740;2023-02-28T02:08:19;101283.80;;;-2.43;57.25
74722;BME280;63470;49.826;6.740;2023-02-28T02:10:48;101283.53;;;-2.45;57.26
74722;BME280;63470;49.826;6.740;2023-02-28T02:16:20;101281.27;;;-2.57;57.20
74722;BME280;63470;49.826;6.740;2023-02-28T02:18:26;101275.58;;;-2.56;57.24
74722;BME280;63470;49.826;6.740;2023-02-28T02:36:03;101264.62;;;-2.51;57.03
74722;BME280;63470;49.826;6.740;2023-02-28T02:41:00;101267.46;;;-2.59;57.12
74722;BME280;63470;49.826;6.740;2023-02-28T02:45:56;101264.44;;;-2.73;57.16
74722;BME280;63470;49.826;6.740;2023-02-28T02:48:27;101264.10;;;-2.80;57.28
74722;BME280;63470;49.826;6.740;2023-02-28T02:50:57;101262.80;;;-2.88;57.33
74722;BME280;63470;49.826;6.740;2023-02-28T02:53:22;101259.05;;;-2.93;57.37
74722;BME280;63470;49.826;6.740;2023-02-28T02:55:55;101262.78;;;-2.95;57.37
74722;BME280;63470;49.826;6.740;2023-02-28T02:58:23;101265.32;;;-2.92;57.28
74722;BME280;63470;49.826;6.740;2023-02-28T03:00:57;101264.73;;;-2.88;57.17
74722;BME280;63470;49.826;6.740;2023-02-28T03:03:30;101264.19;;;-2.83;57.08
74722;BME280;63470;49.826;6.740;2023-02-28T03:05:51;101263.48;;;-2.81;57.06
74722;BME280;63470;49.826;6.740;2023-02-28T03:08:22;101263.28;;;-2.77;57.11
74722;BME280;63470;49.826;6.740;2023-02-28T03:10:57;101266.52;;;-2.72;57.05
74722;BME280;63470;49.826;6.740;2023-02-28T03:13:58;101262.67;;;-2.71;57.01
74722;BME280;63470;49.826;6.740;2023-02-28T03:23:42;101266.30;;;-2.76;57.06
74722;BME280;63470;49.826;6.740;2023-02-28T03:26:12;101271.23;;;-2.73;57.04
74722;BME280;63470;49.826;6.740;2023-02-28T03:29:00;101272.97;;;-2.72;57.06
74722;BME280;63470;49.826;6.740;2023-02-28T03:31:00;101273.30;;;-2.70;56.99
74722;BME280;63470;49.826;6.740;2023-02-28T03:33:50;101273.20;;;-2.76;56.97
74722;BME280;63470;49.826;6.740;2023-02-28T03:36:05;101271.23;;;-2.83;57.05
74722;BME280;63470;49.826;6.740;2023-02-28T03:38:35;101267.23;;;-2.85;57.07
74722;BME280;63470;49.826;6.740;2023-02-28T03:41:03;101269.48;;;-2.84;57.07
74722;BME280;63470;49.826;6.740;2023-02-28T03:43:32;101270.53;;;-2.85;57.05
74722;BME280;63470;49.826;6.740;2023-02-28T03:46:00;101272.56;;;-2.87;57.11
74722;BME280;63470;49.826;6.740;2023-02-28T03:48:37;101270.11;;;-2.90;57.16
74722;BME280;63470;49.826;6.740;2023-02-28T03:51:00;101269.89;;;-2.89;57.27
74722;BME280;63470;49.826;6.740;2023-02-28T03:53:36;101271.27;;;-2.87;57.25
74722;BME280;63470;49.826;6.740;2023-02-28T03:56:22;101271.80;;;-2.84;57.21
74722;BME280;63470;49.826;6.740;2023-02-28T03:58:55;101274.96;;;-2.80;57.17
74722;BME280;63470;49.826;6.740;2023-02-28T04:01:12;101280.21;;;-2.77;57.11
74722;BME280;63470;49.826;6.740;2023-02-28T04:03:32;101280.41;;;-2.80;57.11
74722;BME280;63470;49.826;6.740;2023-02-28T04:06:04;101271.04;;;-2.82;57.28
74722;BME280;63470;49.826;6.740;2023-02-28T04:08:38;101274.38;;;-2.76;57.24
74722;BME280;63470;49.826;6.740;2023-02-28T04:11:15;101275.66;;;-2.71;57.19
74722;BME280;63470;49.826;6.740;2023-02-28T04:13:39;101279.74;;;-2.75;57.25
74722;BME280;63470;49.826;6.740;2023-02-28T04:16:17;101275.53;;;-2.81;57.34
74722;BME280;63470;49.826;6.740;2023-02-28T04:18:39;101274.50;;;-2.81;57.37
74722;BME280;63470;49.826;6.740;2023-02-28T04:21:07;101276.86;;;-2.76;57.38
74722;BME280;63470;49.826;6.740;2023-02-28T04:23:41;101276.67;;;-2.69;57.30
74722;BME280;63470;49.826;6.740;2023-02-28T04:26:11;101277.48;;;-2.65;57.23
74722;BME280;63470;49.826;6.740;2023-02-28T04:28:38;101272.28;;;-2.68;57.25
74722;BME280;63470;49.826;6.740;2023-02-28T04:31:09;101274.37;;;-2.71;57.26
74722;BME280;63470;49.826;6.740;2023-02-28T04:33:42;101277.61;;;-2.69;57.28
74722;BME280;63470;49.826;6.740;2023-02-28T04:36:09;101274.12;;;-2.68;57.34
74722;BME280;63470;49.826;6.740;2023-02-28T04:38:40;101275.73;;;-2.65;57.32
74722;BME280;63470;49.826;6.740;2023-02-28T04:41:12;101276.89;;;-2.65;57.33
74722;BME280;63470;49.826;6.740;2023-02-28T04:43:40;101275.09;;;-2.64;57.35
74722;BME280;63470;49.826;6.740;2023-02-28T04:46:13;101276.02;;;-2.60;57.34
74722;BME280;63470;49.826;6.740;2023-02-28T04:48:41;101278.16;;;-2.58;57.30
74722;BME280;63470;49.826;6.740;2023-02-28T04:51:18;101278.26;;;-2.58;57.29
74722;BME280;63470;49.826;6.740;2023-02-28T04:53:46;101279.82;;;-2.61;57.32
74722;BME280;63470;49.826;6.740;2023-02-28T04:56:14;101277.41;;;-2.64;57.37
74722;BME280;63470;49.826;6.740;2023-02-28T04:58:46;101280.45;;;-2.65;57.36
74722;BME280;63470;49.826;6.740;2023-02-28T05:01:19;101280.23;;;-2.67;57.45
74722;BME280;63470;49.826;6.740;2023-02-28T05:03:48;101276.25;;;-2.69;57.47
74722;BME280;63470;49.826;6.740;2023-02-28T05:06:19;101282.34;;;-2.71;57.46
74722;BME280;63470;49.826;6.740;2023-02-28T05:08:48;101282.03;;;-2.74;57.47
74722;BME280;63470;49.826;6.740;2023-02-28T05:11:30;101279.81;;;-2.78;57.49
74722;BME280;63470;49.826;6.740;2023-02-28T05:13:50;101280.41;;;-2.80;57.51
74722;BME280;63470;49.826;6.740;2023-02-28T05:16:17;101282.07;;;-2.79;57.53
74722;BME280;63470;49.826;6.740;2023-02-28T05:18:52;101280.81;;;-2.79;57.51
74722;BME280;63470;49.826;6.740;2023-02-28T05:21:30;101279.55;;;-2.78;57.50
74722;BME280;63470;49.826;6.740;2023-02-28T05:23:52;101281.95;;;-2.77;57.47
74722;BME280;63470;49.826;6.740;2023-02-28T05:26:23;101279.52;;;-2.75;57.41
74722;BME280;63470;49.826;6.740;2023-02-28T05:28:54;101282.52;;;-2.74;57.38
74722;BME280;63470;49.826;6.740;2023-02-28T05:31:20;101283.72;;;-2.73;57.40
74722;BME280;63470;49.826;6.740;2023-02-28T05:33:59;101280.89;;;-2.71;57.40
74722;BME280;63470;49.826;6.740;2023-02-28T05:36:26;101281.86;;;-2.66;57.34
74722;BME280;63470;49.826;6.740;2023-02-28T05:38:57;101281.73;;;-2.65;57.29
74722;BME280;63470;49.826;6.740;2023-02-28T05:41:27;101285.95;;;-2.62;57.26
74722;BME280;63470;49.826;6.740;2023-02-28T05:43:56;101293.22;;;-2.63;57.27
74722;BME280;63470;49.826;6.740;2023-02-28T05:46:26;101288.25;;;-2.67;57.35
74722;BME280;63470;49.826;6.740;2023-02-28T05:48:58;101287.91;;;-2.64;57.36
74722;BME280;63470;49.826;6.740;2023-02-28T05:51:24;101285.68;;;-2.65;57.34
74722;BME280;63470;49.826;6.740;2023-02-28T05:53:59;101286.50;;;-2.68;57.38
74722;BME280;63470;49.826;6.740;2023-02-28T05:56:25;101289.41;;;-2.68;57.42
74722;BME280;63470;49.826;6.740;2023-02-28T05:59:01;101289.77;;;-2.61;57.42
74722;BME280;63470;49.826;6.740;2023-02-28T06:01:42;101289.30;;;-2.53;57.36
74722;BME280;63470;49.826;6.740;2023-02-28T06:03:59;101290.70;;;-2.50;57.29
74722;BME280;63470;49.826;6.740;2023-02-28T06:06:32;101293.91;;;-2.49;57.28
74722;BME280;63470;49.826;6.740;2023-02-28T06:09:04;101293.12;;;-2.51;57.31
74722;BME280;63470;49.826;6.740;2023-02-28T06:11:32;101298.42;;;-2.52;57.34
74722;BME280;63470;49.826;6.740;2023-02-28T06:14:03;101301.14;;;-2.56;57.42
74722;BME280;63470;49.826;6.740;2023-02-28T06:16:33;101299.88;;;-2.57;57.51
74722;BME280;63470;49.826;6.740;2023-02-28T06:19:03;101301.78;;;-2.57;57.46
74722;BME280;63470;49.826;6.740;2023-02-28T06:21:36;101302.23;;;-2.62;57.54
74722;BME280;63470;49.826;6.740;2023-02-28T06:24:07;101304.56;;;-2.67;57.69
74722;BME280;63470;49.826;6.740;2023-02-28T06:26:32;101306.28;;;-2.62;57.70
74722;BME280;63470;49.826;6.740;2023-02-28T06:29:05;101315.78;;;-2.55;57.62
74722;BME280;63470;49.826;6.740;2023-02-28T06:31:38;101314.57;;;-2.48;57.50
74722;BME280;63470;49.826;6.740;2023-02-28T06:34:04;101316.34;;;-2.44;57.42
74722;BME280;63470;49.826;6.740;2023-02-28T06:36:36;101319.13;;;-2.41;57.44
74722;BME280;63470;49.826;6.740;2023-02-28T06:39:06;101319.95;;;-2.40;57.46
74722;BME280;63470;49.826;6.740;2023-02-28T06:41:38;101321.56;;;-2.33;57.51
74722;BME280;63470;49.826;6.740;2023-02-28T06:44:16;101329.62;;;-2.25;57.53
74722;BME280;63470;49.826;6.740;2023-02-28T06:46:40;101336.12;;;-2.18;57.50
74722;BME280;63470;49.826;6.740;2023-02-28T06:49:14;101332.25;;;-2.18;57.57
74722;BME280;63470;49.826;6.740;2023-02-28T06:51:40;101332.59;;;-2.13;57.63
74722;BME280;63470;49.826;6.740;2023-02-28T06:54:09;101333.34;;;-2.11;57.66
74722;BME280;63470;49.826;6.740;2023-02-28T06:56:39;101335.14;;;-2.06;57.70
74722;BME280;63470;49.826;6.740;2023-02-28T06:59:12;101338.45;;;-1.95;57.68
74722;BME280;63470;49.826;6.740;2023-02-28T07:01:45;101336.67;;;-1.68;57.62
74722;BME280;63470;49.826;6.740;2023-02-28T07:04:15;101336.46;;;-1.28;57.35
74722;BME280;63470;49.826;6.740;2023-02-28T07:06:41;101332.95;;;-0.97;57.28
74722;BME280;63470;49.826;6.740;2023-02-28T07:09:14;101334.92;;;-0.90;57.49
74722;BME280;63470;49.826;6.740;2023-02-28T07:11:45;101334.53;;;-0.89;57.68
74722;BME280;63470;49.826;6.740;2023-02-28T07:14:14;101339.16;;;-0.74;57.79
74722;BME280;63470;49.826;6.740;2023-02-28T07:16:51;101334.42;;;-0.48;57.62
74722;BME280;63470;49.826;6.740;2023-02-28T07:19:18;101336.61;;;-0.17;57.58
74722;BME280;63470;49.826;6.740;2023-02-28T07:21:46;101340.08;;;0.28;57.35
74722;BME280;63470;49.826;6.740;2023-02-28T07:24:18;101343.88;;;0.73;57.20
74722;BME280;63470;49.826;6.740;2023-02-28T07:26:49;101349.03;;;1.10;57.49
74722;BME280;63470;49.826;6.740;2023-02-28T07:29:20;101341.90;;;1.56;57.57
74722;BME280;63470;49.826;6.740;2023-02-28T07:31:52;101346.24;;;2.02;57.94
74722;BME280;63470;49.826;6.740;2023-02-28T07:34:22;101343.83;;;2.42;58.44
74722;BME280;63470;49.826;6.740;2023-02-28T07:36:46;101347.56;;;2.99;59.01
74722;BME280;63470;49.826;6.740;2023-02-28T07:39:22;101339.54;;;3.45;59.74
74722;BME280;63470;49.826;6.740;2023-02-28T07:41:48;101337.02;;;4.11;59.97
74722;BME280;63470;49.826;6.740;2023-02-28T07:44:19;101328.86;;;4.67;59.74
74722;BME280;63470;49.826;6.740;2023-02-28T07:46:49;101325.91;;;5.19;59.67
74722;BME280;63470;49.826;6.740;2023-02-28T07:49:24;101330.79;;;5.35;59.87
74722;BME280;63470;49.826;6.740;2023-02-28T07:51:50;101330.80;;;5.05;61.20
74722;BME280;63470;49.826;6.740;2023-02-28T07:54:23;101324.94;;;5.13;61.57
74722;BME280;63470;49.826;6.740;2023-02-28T07:56:50;101325.51;;;5.37;61.40
74722;BME280;63470;49.826;6.740;2023-02-28T07:59:24;101329.73;;;5.84;60.49
74722;BME280;63470;49.826;6.740;2023-02-28T08:01:56;101328.34;;;6.04;60.15
74722;BME280;63470;49.826;6.740;2023-02-28T08:04:21;101331.64;;;6.21;59.82
74722;BME280;63470;49.826;6.740;2023-02-28T08:06:54;101327.98;;;6.06;60.36
74722;BME280;63470;49.826;6.740;2023-02-28T08:09:22;101324.73;;;6.23;60.60
74722;BME280;63470;49.826;6.740;2023-02-28T08:11:55;101323.47;;;6.74;59.97
74722;BME280;63470;49.826;6.740;2023-02-28T08:14:25;101312.14;;;7.09;58.90
74722;BME280;63470;49.826;6.740;2023-02-28T08:16:55;101313.58;;;7.34;58.52
74722;BME280;63470;49.826;6.740;2023-02-28T08:19:27;101318.19;;;7.59;58.46
74722;BME280;63470;49.826;6.740;2023-02-28T08:21:57;101307.59;;;7.65;58.66
74722;BME280;63470;49.826;6.740;2023-02-28T08:24:25;101311.50;;;7.43;59.34
74722;BME280;63470;49.826;6.740;2023-02-28T08:26:58;101317.62;;;6.95;60.35
74722;BME280;63470;49.826;6.740;2023-02-28T08:29:25;101313.08;;;6.68;60.46
74722;BME280;63470;49.826;6.740;2023-02-28T08:31:56;101314.94;;;6.86;59.62
74722;BME280;63470;49.826;6.740;2023-02-28T08:34:29;101306.05;;;7.08;58.64
74722;BME280;63470;49.826;6.740;2023-02-28T08:36:57;101305.83;;;7.32;57.57
74722;BME280;63470;49.826;6.740;2023-02-28T08:39:31;101308.81;;;7.18;57.77
74722;BME280;63470;49.826;6.740;2023-02-28T08:41:58;101309.94;;;7.62;56.74
74722;BME280;63470;49.826;6.740;2023-02-28T08:44:29;101301.61;;;8.12;55.72
74722;BME280;63470;49.826;6.740;2023-02-28T08:47:02;101303.83;;;8.33;55.37
74722;BME280;63470;49.826;6.740;2023-02-28T08:49:34;101299.28;;;8.30;54.83
74722;BME280;63470;49.826;6.740;2023-02-28T08:52:00;101302.08;;;7.72;55.54
74722;BME280;63470;49.826;6.740;2023-02-28T08:54:38;101316.14;;;6.84;56.51
74722;BME280;63470;49.826;6.740;2023-02-28T08:57:04;101313.50;;;6.23;57.00
74722;BME280;63470;49.826;6.740;2023-02-28T08:59:32;101317.99;;;5.89;57.38
74722;BME280;63470;49.826;6.740;2023-02-28T09:02:06;101319.81;;;5.79;57.60
74722;BME280;63470;49.826;6.740;2023-02-28T09:04:33;101319.53;;;5.51;57.50
74722;BME280;63470;49.826;6.740;2023-02-28T09:07:03;101316.48;;;5.15;57.59
74722;BME280;63470;49.826;6.740;2023-02-28T09:09:33;101319.39;;;4.93;57.59
74722;BME280;63470;49.826;6.740;2023-02-28T09:12:08;101316.38;;;4.75;57.63
74722;BME280;63470;49.826;6.740;2023-02-28T09:14:36;101313.27;;;4.61;57.55
74722;BME280;63470;49.826;6.740;2023-02-28T09:17:05;101313.47;;;4.57;57.53
74722;BME280;63470;49.826;6.740;2023-02-28T09:19:40;101307.33;;;4.52;57.46
74722;BME280;63470;49.826;6.740;2023-02-28T09:22:06;101302.72;;;4.60;57.50
74722;BME280;63470;49.826;6.740;2023-02-28T09:24:39;101300.79;;;4.75;57.35
74722;BME280;63470;49.826;6.740;2023-02-28T09:27:07;101299.47;;;4.91;57.34
74722;BME280;63470;49.826;6.740;2023-02-28T09:29:38;101296.04;;;5.05;57.31
74722;BME280;63470;49.826;6.740;2023-02-28T09:32:10;101301.53;;;5.02;57.30
74722;BME280;63470;49.826;6.740;2023-02-28T09:34:39;101296.89;;;4.96;57.36
74722;BME280;63470;49.826;6.740;2023-02-28T09:37:14;101304.61;;;4.84;57.17
74722;BME280;63470;49.826;6.740;2023-02-28T09:39:40;101304.10;;;4.67;57.30
74722;BME280;63470;49.826;6.740;2023-02-28T09:42:25;101304.07;;;4.56;57.43
74722;BME280;63470;49.826;6.740;2023-02-28T09:44:47;101310.45;;;4.44;57.49
74722;BME280;63470;49.826;6.740;2023-02-28T09:49:44;101302.05;;;4.48;57.45
74722;BME280;63470;49.826;6.740;2023-02-28T09:52:18;101304.56;;;4.53;57.27
74722;BME280;63470;49.826;6.740;2023-02-28T09:54:46;101297.44;;;4.58;57.15
74722;BME280;63470;49.826;6.740;2023-02-28T10:02:41;101299.05;;;4.77;56.94
74722;BME280;63470;49.826;6.740;2023-02-28T10:04:52;101295.81;;;4.86;56.78
74722;BME280;63470;49.826;6.740;2023-02-28T10:09:52;101293.91;;;5.37;56.42
74722;BME280;63470;49.826;6.740;2023-02-28T10:12:16;101295.84;;;5.88;56.28
74722;BME280;63470;49.826;6.740;2023-02-28T10:14:47;101299.19;;;6.12;56.15
74722;BME280;63470;49.826;6.740;2023-02-28T10:17:23;101300.25;;;6.12;56.21
74722;BME280;63470;49.826;6.740;2023-02-28T10:20:01;101296.45;;;6.27;56.37
74722;BME280;63470;49.826;6.740;2023-02-28T10:22:31;101296.61;;;6.41;56.54
74722;BME280;63470;49.826;6.740;2023-02-28T10:24:51;101294.58;;;6.33;56.56
74722;BME280;63470;49.826;6.740;2023-02-28T10:27:29;101294.56;;;6.31;56.72
74722;BME280;63470;49.826;6.740;2023-02-28T10:29:53;101290.17;;;6.29;56.87
74722;BME280;63470;49.826;6.740;2023-02-28T10:32:25;101283.05;;;6.29;56.68
74722;BME280;63470;49.826;6.740;2023-02-28T10:35:10;101287.60;;;6.27;56.64
74722;BME280;63470;49.826;6.740;2023-02-28T10:37:22;101282.31;;;6.62;56.57
74722;BME280;63470;49.826;6.740;2023-02-28T10:39:51;101276.33;;;7.79;55.77
74722;BME280;63470;49.826;6.740;2023-02-28T10:42:26;101277.03;;;8.71;55.04
74722;BME280;63470;49.826;6.740;2023-02-28T10:45:12;101259.83;;;8.98;54.94
74722;BME280;63470;49.826;6.740;2023-02-28T10:47:22;101264.55;;;9.62;54.87
74722;BME280;63470;49.826;6.740;2023-02-28T10:49:53;101251.95;;;10.55;54.20
74722;BME280;63470;49.826;6.740;2023-02-28T10:52:38;101248.41;;;10.75;54.42
74722;BME280;63470;49.826;6.740;2023-02-28T10:55:15;101255.67;;;10.65;54.82
74722;BME280;63470;49.826;6.740;2023-02-28T10:57:25;101255.41;;;10.31;55.43
74722;BME280;63470;49.826;6.740;2023-02-28T11:00:25;101254.73;;;9.59;56.37
74722;BME280;63470;49.826;6.740;2023-02-28T11:02:31;101251.41;;;9.08;56.89
74722;BME280;63470;49.826;6.740;2023-02-28T11:04:57;101248.41;;;8.53;57.25
74722;BME280;63470;49.826;6.740;2023-02-28T11:07:28;101236.59;;;8.27;57.48
74722;BME280;63470;49.826;6.740;2023-02-28T11:09:58;101239.70;;;8.05;57.32
74722;BME280;63470;49.826;6.740;2023-02-28T11:12:37;101243.47;;;7.95;57.26
74722;BME280;63470;49.826;6.740;2023-02-28T11:15:32;101241.76;;;8.06;57.21
74722;BME280;63470;49.826;6.740;2023-02-28T11:17:31;101233.61;;;8.11;56.97
74722;BME280;63470;49.826;6.740;2023-02-28T11:20:10;101237.74;;;8.26;56.80
74722;BME280;63470;49.826;6.740;2023-02-28T11:22:33;101239.52;;;8.32;56.53
74722;BME280;63470;49.826;6.740;2023-02-28T11:25:07;101235.81;;;8.17;56.48
74722;BME280;63470;49.826;6.740;2023-02-28T11:27:42;101237.88;;;8.11;56.61
74722;BME280;63470;49.826;6.740;2023-02-28T11:30:03;101236.91;;;7.96;56.72
74722;BME280;63470;49.826;6.740;2023-02-28T11:32:33;101237.00;;;7.82;56.75
74722;BME280;63470;49.826;6.740;2023-02-28T11:35:14;101229.98;;;8.01;56.90
74722;BME280;63470;49.826;6.740;2023-02-28T11:37:35;101232.70;;;8.33;56.54
74722;BME280;63470;49.826;6.740;2023-02-28T11:40:17;101231.06;;;8.50;56.20
74722;BME280;63470;49.826;6.740;2023-02-28T11:47:51;101236.53;;;8.25;56.02
74722;BME280;63470;49.826;6.740;2023-02-28T11:50:35;101227.02;;;8.01;56.36
74722;BME280;63470;49.826;6.740;2023-02-28T11:52:58;101230.47;;;7.87;56.69
74722;BME280;63470;49.826;6.740;2023-02-28T11:57:52;101233.03;;;8.11;56.95
74722;BME280;63470;49.826;6.740;2023-02-28T12:00:20;101231.32;;;8.45;56.58
74722;BME280;63470;49.826;6.740;2023-02-28T12:02:59;101225.51;;;8.69;56.26
74722;BME280;63470;49.826;6.740;2023-02-28T12:05:21;101223.15;;;8.60;56.23
74722;BME280;63470;49.826;6.740;2023-02-28T12:10:26;101223.29;;;8.66;56.57
74722;BME280;63470;49.826;6.740;2023-02-28T12:15:32;101212.50;;;9.13;56.33
74722;BME280;63470;49.826;6.740;2023-02-28T12:18:02;101205.36;;;9.78;55.84
74722;BME280;63470;49.826;6.740;2023-02-28T12:20:40;101199.73;;;10.40;55.11
74722;BME280;63470;49.826;6.740;2023-02-28T12:23:00;101205.48;;;10.73;54.47
74722;BME280;63470;49.826;6.740;2023-02-28T12:27:44;101215.89;;;11.73;53.41
74722;BME280;63470;49.826;6.740;2023-02-28T12:30:25;101206.77;;;12.07;53.14
74722;BME280;63470;49.826;6.740;2023-02-28T12:32:45;101196.47;;;11.84;53.28
74722;BME280;63470;49.826;6.740;2023-02-28T12:35:22;101199.95;;;11.63;53.83
74722;BME280;63470;49.826;6.740;2023-02-28T12:38:06;101188.20;;;11.87;53.85
74722;BME280;63470;49.826;6.740;2023-02-28T12:40:19;101188.88;;;12.24;53.41
74722;BME280;63470;49.826;6.740;2023-02-28T12:42:56;101179.53;;;12.50;53.15
74722;BME280;63470;49.826;6.740;2023-02-28T12:45:24;101187.10;;;12.28;53.25
74722;BME280;63470;49.826;6.740;2023-02-28T12:47:51;101187.27;;;12.14;53.67
74722;BME280;63470;49.826;6.740;2023-02-28T12:50:17;101184.21;;;12.03;53.87
74722;BME280;63470;49.826;6.740;2023-02-28T12:52:54;101191.08;;;11.92;54.01
74722;BME280;63470;49.826;6.740;2023-02-28T12:55:27;101189.11;;;11.65;54.23
74722;BME280;63470;49.826;6.740;2023-02-28T12:58:10;101185.97;;;11.73;54.24
74722;BME280;63470;49.826;6.740;2023-02-28T13:00:23;101182.03;;;11.78;54.00
74722;BME280;63470;49.826;6.740;2023-02-28T13:03:06;101180.71;;;11.81;53.92
74722;BME280;63470;49.826;6.740;2023-02-28T13:08:17;101170.93;;;12.18;53.67
74722;BME280;63470;49.826;6.740;2023-02-28T13:10:22;101171.77;;;12.49;53.44
74722;BME280;63470;49.826;6.740;2023-02-28T13:12:53;101171.39;;;12.56;53.14
74722;BME280;63470;49.826;6.740;2023-02-28T13:15:27;101178.92;;;12.82;53.09
74722;BME280;63470;49.826;6.740;2023-02-28T13:17:59;101171.25;;;12.89;52.93
74722;BME280;63470;49.826;6.740;2023-02-28T13:20:27;101164.98;;;12.75;52.95
74722;BME280;63470;49.826;6.740;2023-02-28T13:22:55;101157.73;;;12.35;53.38
74722;BME280;63470;49.826;6.740;2023-02-28T13:27:57;101165.25;;;12.27;53.57
74722;BME280;63470;49.826;6.740;2023-02-28T13:33:24;101160.75;;;12.42;53.45
74722;BME280;63470;49.826;6.740;2023-02-28T13:35:35;101161.25;;;12.31;53.34
74722;BME280;63470;49.826;6.740;2023-02-28T13:38:12;101161.16;;;12.30;53.49
74722;BME280;63470;49.826;6.740;2023-02-28T13:40:31;101152.32;;;12.50;53.33
74722;BME280;63470;49.826;6.740;2023-02-28T13:42:59;101151.73;;;12.67;53.08
74722;BME280;63470;49.826;6.740;2023-02-28T13:45:30;101153.16;;;12.74;52.98
74722;BME280;63470;49.826;6.740;2023-02-28T13:48:03;101162.00;;;12.68;52.80
74722;BME280;63470;49.826;6.740;2023-02-28T13:50:38;101163.36;;;12.15;53.01
74722;BME280;63470;49.826;6.740;2023-02-28T13:55:38;101160.70;;;11.82;53.64
74722;BME280;63470;49.826;6.740;2023-02-28T14:03:14;101149.64;;;12.23;53.28
74722;BME280;63470;49.826;6.740;2023-02-28T14:05:35;101149.14;;;12.43;53.13
74722;BME280;63470;49.826;6.740;2023-02-28T14:08:21;101157.22;;;12.65;52.66
74722;BME280;63470;49.826;6.740;2023-02-28T14:10:49;101150.46;;;12.42;52.61
74722;BME280;63470;49.826;6.740;2023-02-28T14:15:47;101147.38;;;12.27;52.88
74722;BME280;63470;49.826;6.740;2023-02-28T14:18:36;101145.66;;;12.43;52.53
74722;BME280;63470;49.826;6.740;2023-02-28T14:20:40;101158.53;;;12.57;52.29
74722;BME280;63470;49.826;6.740;2023-02-28T14:23:29;101143.61;;;12.52;52.02